Архив погоды в Вохме

Метеограмма Вохма
Понедельник, 25 Июня
Время местн. Темп Ветер Видим Явления Облачность нижн/средн/верх Атм. давл. Влжн Точка росы ВНГО R Сост. почвы Tg s
Напр Скр Прв ур.ст ур.м изм
03:00 +15.7° С 1 - 40 км - ясно 748 762 +0.3 95% +14.9° более 2.5 км - - - -
00:00 +18.2° штиль 0 - более 50 км - ясно 748 762 +0.5 94% +17.2° более 2.5 км - - - -
Воскресенье, 24 Июня
Время местн. Темп Ветер Видим Явления Облачность нижн/средн/верх Атм. давл. Влжн Точка росы ВНГО R Сост. почвы Tg s
Напр Скр Прв ур.ст ур.м изм
21:00 +22.6° штиль 0 - 40 км - переменная облачность 747 761 +0.5 80% +18.9° 1.5 км - - - -
18:00 +30.3° Ю,Ю-В 2 - 40 км - переменная облачность 747 760 -0.2 42% +15.8° 2 км 0 - - -
15:00 +31.6° З,Ю-З 1 - 40 км - переменная облачность 747 760 +0.1 35% +14.1° 1.5 км - - - -
12:00 +30.9° Ю 1 - 40 км - переменная облачность 747 760 +0.1 42% +16.5° 1.5 км - - - -
09:00 +27° В 1 - 40 км - ясно 747 761 +0.2 62% +19.1° более 2.5 км - - - -
06:00 +20.4° С-В 1 - 40 км - ясно 747 761 +0.2 81% +17° более 2.5 км - Влажная (без луж) - -
03:00 +15.3° штиль 0 - 40 км - ясно 747 761 +0.8 95% +14.5° более 2.5 км - - - -
00:00 +16.9° штиль 0 - 50 км - ясно 746 760 +0.5 94% +15.9° более 2.5 км - - - -
Суббота, 23 Июня
Время местн. Темп Ветер Видим Явления Облачность нижн/средн/верх Атм. давл. Влжн Точка росы ВНГО R Сост. почвы Tg s
Напр Скр Прв ур.ст ур.м изм
21:00 +21.2° штиль 0 - 40 км - переменная облачность 745 759 +0.4 81% +17.8° - - - - -
18:00 +28.3° З 1 - 40 км - переменная облачность 745 758 +0.1 47% +16° - - - - -
15:00 +29.6° Ю,Ю-З 2 - 40 км - переменная облачность 745 758 +0.1 42% +15.5° 2 км - - - -
12:00 +27.9° З,Ю-З 2 - 40 км - переменная облачность 745 759 +0.1 45% +15° - - - - -
09:00 +24.8° Ю,Ю-З 1 - 40 км - переменная облачность 745 759 -0.1 57% +15.8° более 2.5 км - - - -
06:00 +17.2° Ю-З 1 - 40 км - переменная облачность 745 759 +0.5 76% +13° более 2.5 км - Влажная (без луж) - -
03:00 +9.1° штиль 0 - 40 км - переменная облачность 745 759 +0.7 95% +8.3° - - - - -
00:00 +10.4° штиль 0 - более 50 км - переменная облачность 744 758 +0.1 94% +9.4° более 2.5 км - - - -
Пятница, 22 Июня
Время местн. Темп Ветер Видим Явления Облачность нижн/средн/верх Атм. давл. Влжн Точка росы ВНГО R Сост. почвы Tg s
Напр Скр Прв ур.ст ур.м изм
21:00 +16.9° штиль 0 - 40 км - переменная облачность 744 758 +0.4 64% +10° более 2.5 км - - - -
18:00 +24.1° З 2 - 40 км - переменная облачность 744 757 +0.1 33% +6.9° более 2.5 км 0 - - -
15:00 +24.1° С-З 2 - 40 км - переменная облачность 744 758 +0.1 29% +4.8° более 2.5 км - - - -
12:00 +22.1° С-З 2 - 40 км - переменная облачность 744 758 +0.2 35% +6° более 2.5 км - - - -
09:00 +19.8° С,С-З 2 - 40 км - переменная облачность 744 758 +0.9 43% +6.8° более 2.5 км - - - -
06:00 +15.1° С,С-З 1 - 40 км - переменная облачность 743 757 +1 58% +6.9° - - Сырая (есть малые или большие лужи) - -
03:00 +10.8° З,С-З 1 - 40 км - переменная облачность 742 756 +1.4 68% +5.2° - - - - -
00:00 +14° З,С-З 1 - 50 км - переменная облачность 741 755 +1.2 60% +6.3° - - - - -